Time;durP1;ratioP1;P1;durP2;ratioP2;P2;SDS_P1;SDS_P2;PMS_P1;PMS_P2;Temp;Humidity;BMP_temperature;BMP_pressure;BME280_temperature;BME280_humidity;BME280_pressure;Samples;Min_cycle;Max_cycle;Signal;HPM_P1;HPM_P2
2021/11/28 00:02:22;;;;;;;15.68;6.28;;;;;;;;;;4975381;28;20030;-70
2021/11/28 00:04:52;;;;;;;15.48;5.55;;;;;;;;;;4983239;28;20440;-70
2021/11/28 00:10:03;;;;;;;13.88;4.43;;;;;;;;;;4991682;28;20033;-73
2021/11/28 00:15:06;;;;;;;17.75;4.70;;;;;;;;;;4990824;28;20121;-70
2021/11/28 00:17:31;;;;;;;15.38;4.78;;;;;;;;;;4991912;28;20019;-70
2021/11/28 00:19:56;;;;;;;9.85;4.30;;;;;;;;;;4991720;28;20030;-71
2021/11/28 00:22:21;;;;;;;15.95;6.05;;;;;;;;;;4990740;28;20026;-74
2021/11/28 00:24:47;;;;;;;12.77;5.40;;;;;;;;;;4991620;28;20022;-70
2021/11/28 00:27:12;;;;;;;13.70;5.07;;;;;;;;;;4991024;28;20025;-70
2021/11/28 00:29:37;;;;;;;17.95;4.35;;;;;;;;;;4991653;28;20038;-70
2021/11/28 00:32:03;;;;;;;7.57;4.03;;;;;;;;;;4991294;28;20133;-70
2021/11/28 00:34:28;;;;;;;17.25;4.45;;;;;;;;;;4990900;28;20065;-70
2021/11/28 00:36:53;;;;;;;15.70;4.85;;;;;;;;;;4989393;28;20503;-70
2021/11/28 00:39:19;;;;;;;16.50;4.28;;;;;;;;;;4990964;28;20037;-70
2021/11/28 00:41:44;;;;;;;12.35;4.63;;;;;;;;;;4990481;28;20034;-73
2021/11/28 00:44:09;;;;;;;11.52;4.32;;;;;;;;;;4991135;28;20068;-70
2021/11/28 00:46:35;;;;;;;18.50;4.75;;;;;;;;;;4991270;28;20037;-71
2021/11/28 00:49:03;;;;;;;15.80;4.50;;;;;;;;;;4991734;28;20026;-70
2021/11/28 00:51:37;;;;;;;10.65;4.70;;;;;;;;;;4990891;28;20081;-70
2021/11/28 00:54:03;;;;;;;13.30;4.80;;;;;;;;;;4988094;28;20034;-70
2021/11/28 00:56:28;;;;;;;11.82;4.63;;;;;;;;;;4989861;28;20030;-69
2021/11/28 00:58:54;;;;;;;13.35;4.47;;;;;;;;;;4990518;28;20426;-72
2021/11/28 01:01:19;;;;;;;12.65;4.82;;;;;;;;;;4990358;28;20525;-73
2021/11/28 01:03:44;;;;;;;13.73;4.60;;;;;;;;;;4991452;28;20073;-70
2021/11/28 01:06:09;;;;;;;16.48;5.28;;;;;;;;;;4990527;28;20165;-73
2021/11/28 01:08:35;;;;;;;14.43;4.78;;;;;;;;;;4995041;28;20517;-70
2021/11/28 01:11:00;;;;;;;13.70;5.35;;;;;;;;;;4983077;28;20022;-73
2021/11/28 01:13:26;;;;;;;11.23;4.72;;;;;;;;;;4990399;28;20043;-72
2021/11/28 01:15:51;;;;;;;12.90;4.53;;;;;;;;;;4990860;28;20506;-70
2021/11/28 01:18:16;;;;;;;14.45;4.70;;;;;;;;;;4990134;28;20029;-70
2021/11/28 01:20:41;;;;;;;11.43;4.80;;;;;;;;;;4985345;28;20049;-70
2021/11/28 01:23:06;;;;;;;10.95;4.93;;;;;;;;;;4990666;28;20022;-70
2021/11/28 01:25:32;;;;;;;11.70;4.95;;;;;;;;;;4990320;28;20114;-72
2021/11/28 01:27:57;;;;;;;11.88;4.68;;;;;;;;;;4977502;28;20122;-70
2021/11/28 01:30:22;;;;;;;14.20;4.68;;;;;;;;;;4988850;28;20080;-73
2021/11/28 01:32:48;;;;;;;14.88;4.78;;;;;;;;;;4990788;28;20041;-73
2021/11/28 01:35:14;;;;;;;14.55;5.88;;;;;;;;;;4987307;28;20030;-72
2021/11/28 01:37:40;;;;;;;10.38;4.40;;;;;;;;;;4989535;28;20038;-70
2021/11/28 01:40:07;;;;;;;12.73;4.45;;;;;;;;;;4989491;28;20029;-73
2021/11/28 01:42:33;;;;;;;9.43;4.55;;;;;;;;;;4990106;28;20019;-73
2021/11/28 01:44:58;;;;;;;14.05;5.20;;;;;;;;;;4990391;28;20026;-70
2021/11/28 01:47:23;;;;;;;12.55;4.13;;;;;;;;;;4990562;28;20133;-70
2021/11/28 01:49:48;;;;;;;19.15;4.90;;;;;;;;;;4989741;28;20018;-72
2021/11/28 01:52:14;;;;;;;9.68;4.30;;;;;;;;;;4987242;28;20058;-70
2021/11/28 01:54:39;;;;;;;9.05;4.45;;;;;;;;;;4978590;28;20026;-70
2021/11/28 01:57:04;;;;;;;19.15;4.80;;;;;;;;;;4990055;28;20132;-71
2021/11/28 01:59:29;;;;;;;13.27;5.00;;;;;;;;;;4990330;28;20034;-70
2021/11/28 02:01:54;;;;;;;14.82;5.85;;;;;;;;;;4989587;28;20098;-70
2021/11/28 02:04:20;;;;;;;10.90;4.30;;;;;;;;;;4989873;28;20022;-70
2021/11/28 02:06:46;;;;;;;13.18;4.93;;;;;;;;;;4990212;28;20364;-74
2021/11/28 02:09:11;;;;;;;13.02;4.70;;;;;;;;;;4986511;28;20030;-71
2021/11/28 02:11:40;;;;;;;14.07;5.20;;;;;;;;;;4990548;28;20028;-69
2021/11/28 02:14:05;;;;;;;16.58;4.53;;;;;;;;;;4990470;28;20021;-69
2021/11/28 02:16:30;;;;;;;14.88;4.65;;;;;;;;;;4991060;28;20026;-70
2021/11/28 02:18:55;;;;;;;11.63;5.10;;;;;;;;;;4990799;28;20026;-70
2021/11/28 02:21:20;;;;;;;14.32;4.75;;;;;;;;;;4993678;28;20018;-69
2021/11/28 02:23:45;;;;;;;17.10;4.43;;;;;;;;;;4992822;28;20490;-73
2021/11/28 02:26:15;;;;;;;13.65;5.22;;;;;;;;;;4992872;28;20494;-70
2021/11/28 02:28:41;;;;;;;17.02;6.78;;;;;;;;;;4993848;28;20023;-73
2021/11/28 02:31:06;;;;;;;13.70;4.30;;;;;;;;;;4997086;28;20123;-72
2021/11/28 02:33:32;;;;;;;12.00;4.53;;;;;;;;;;4997079;28;20034;-70
2021/11/28 02:35:57;;;;;;;13.23;4.75;;;;;;;;;;4993999;28;20140;-71
2021/11/28 02:38:23;;;;;;;14.15;4.68;;;;;;;;;;4992460;28;20518;-71
2021/11/28 02:40:48;;;;;;;11.40;5.45;;;;;;;;;;4993612;28;20489;-70
2021/11/28 02:43:13;;;;;;;11.90;5.18;;;;;;;;;;4981150;28;20018;-70
2021/11/28 02:45:39;;;;;;;10.45;4.65;;;;;;;;;;4991714;28;20121;-72
2021/11/28 02:48:06;;;;;;;13.77;4.85;;;;;;;;;;4980932;28;20396;-73
2021/11/28 02:50:31;;;;;;;13.15;4.63;;;;;;;;;;4993487;28;20073;-70
2021/11/28 02:52:58;;;;;;;16.65;4.80;;;;;;;;;;4993334;28;20541;-74
2021/11/28 02:55:33;;;;;;;14.25;4.70;;;;;;;;;;4993660;28;20089;-70
2021/11/28 02:57:58;;;;;;;9.57;4.15;;;;;;;;;;4993541;28;20022;-72
2021/11/28 03:00:24;;;;;;;8.23;4.00;;;;;;;;;;4984399;28;20383;-72
2021/11/28 03:02:49;;;;;;;13.45;4.18;;;;;;;;;;4987686;28;20031;-73
2021/11/28 03:05:15;;;;;;;13.90;4.35;;;;;;;;;;4993543;28;20030;-70
2021/11/28 03:07:40;;;;;;;8.40;4.45;;;;;;;;;;4992473;28;20022;-71
2021/11/28 03:10:07;;;;;;;10.00;4.25;;;;;;;;;;4992516;28;20065;-73
2021/11/28 03:12:33;;;;;;;13.90;5.05;;;;;;;;;;4993052;28;20501;-70
2021/11/28 03:14:58;;;;;;;17.13;4.93;;;;;;;;;;4989950;28;20030;-70
2021/11/28 03:17:23;;;;;;;13.82;4.78;;;;;;;;;;4992574;28;20023;-70
2021/11/28 03:19:49;;;;;;;19.63;4.25;;;;;;;;;;4993074;28;20112;-70
2021/11/28 03:22:14;;;;;;;13.90;4.97;;;;;;;;;;4992525;28;20026;-70
2021/11/28 03:24:39;;;;;;;11.80;4.25;;;;;;;;;;4992983;28;20026;-70
2021/11/28 03:27:05;;;;;;;10.02;5.15;;;;;;;;;;4992562;28;20030;-69
2021/11/28 03:29:30;;;;;;;15.73;4.35;;;;;;;;;;4991781;28;20480;-73
2021/11/28 03:31:56;;;;;;;15.38;5.07;;;;;;;;;;4992125;28;20022;-70
2021/11/28 03:34:22;;;;;;;7.13;4.50;;;;;;;;;;4978931;28;20023;-70
2021/11/28 03:36:49;;;;;;;11.48;4.57;;;;;;;;;;4987382;28;20034;-70
2021/11/28 03:39:16;;;;;;;17.90;4.47;;;;;;;;;;4992065;28;20058;-71
2021/11/28 03:41:42;;;;;;;13.32;4.80;;;;;;;;;;4993103;28;20023;-70
2021/11/28 03:44:07;;;;;;;12.35;4.50;;;;;;;;;;4985351;28;20064;-75
2021/11/28 03:46:32;;;;;;;10.13;4.35;;;;;;;;;;4992106;28;20030;-73
2021/11/28 03:48:58;;;;;;;12.48;4.45;;;;;;;;;;4984194;28;20023;-69
2021/11/28 03:51:24;;;;;;;13.32;4.63;;;;;;;;;;4987422;28;20029;-70
2021/11/28 03:53:49;;;;;;;10.15;4.65;;;;;;;;;;4995251;28;20022;-72
2021/11/28 03:56:15;;;;;;;10.27;4.70;;;;;;;;;;4992014;28;20112;-69
2021/11/28 03:58:40;;;;;;;15.30;4.82;;;;;;;;;;4992224;28;20034;-72
2021/11/28 04:01:06;;;;;;;11.35;4.68;;;;;;;;;;4984910;28;20027;-69
2021/11/28 04:03:31;;;;;;;10.93;4.80;;;;;;;;;;4986062;28;20109;-69
2021/11/28 04:05:57;;;;;;;11.75;5.13;;;;;;;;;;4990986;28;20169;-70
2021/11/28 04:08:22;;;;;;;10.88;5.32;;;;;;;;;;4990521;28;20058;-69
2021/11/28 04:10:47;;;;;;;9.13;4.60;;;;;;;;;;4991844;28;20461;-73
2021/11/28 04:13:13;;;;;;;8.30;4.15;;;;;;;;;;4991967;28;20026;-69
2021/11/28 04:15:38;;;;;;;9.35;4.22;;;;;;;;;;4980528;28;20027;-70
2021/11/28 04:18:03;;;;;;;11.07;5.00;;;;;;;;;;4985129;28;20026;-70
2021/11/28 04:20:28;;;;;;;14.75;5.43;;;;;;;;;;4991929;28;20041;-69
2021/11/28 04:22:54;;;;;;;7.10;4.00;;;;;;;;;;4992141;28;20072;-72
2021/11/28 04:25:19;;;;;;;11.35;4.43;;;;;;;;;;4991063;28;20085;-69
2021/11/28 04:27:45;;;;;;;10.38;5.03;;;;;;;;;;4991877;28;20106;-73
2021/11/28 04:30:11;;;;;;;10.40;4.47;;;;;;;;;;4984853;28;20029;-69
2021/11/28 04:32:36;;;;;;;8.43;3.97;;;;;;;;;;4990170;28;20025;-71
2021/11/28 04:35:02;;;;;;;13.02;4.80;;;;;;;;;;4991382;28;20026;-68
2021/11/28 04:37:27;;;;;;;8.93;4.63;;;;;;;;;;4990013;28;20034;-74
2021/11/28 04:39:52;;;;;;;8.65;4.03;;;;;;;;;;4989658;28;20022;-77
2021/11/28 04:42:18;;;;;;;14.05;4.80;;;;;;;;;;4989157;28;20026;-70
2021/11/28 04:44:43;;;;;;;12.45;4.32;;;;;;;;;;4990454;28;20048;-68
2021/11/28 04:47:08;;;;;;;9.15;4.00;;;;;;;;;;4991198;28;20093;-69
2021/11/28 04:49:33;;;;;;;11.65;4.43;;;;;;;;;;4989738;28;20018;-68
2021/11/28 04:51:59;;;;;;;19.42;5.57;;;;;;;;;;4991085;28;20029;-72
2021/11/28 04:54:24;;;;;;;15.35;4.82;;;;;;;;;;4991042;28;20026;-68
2021/11/28 04:56:50;;;;;;;16.02;5.05;;;;;;;;;;4991136;28;20030;-69
2021/11/28 04:59:15;;;;;;;11.07;5.00;;;;;;;;;;4988561;28;20036;-70
2021/11/28 05:01:41;;;;;;;7.82;4.40;;;;;;;;;;4979219;28;20023;-68
2021/11/28 05:04:07;;;;;;;8.82;4.40;;;;;;;;;;4989390;28;20108;-69
2021/11/28 05:06:32;;;;;;;7.88;4.38;;;;;;;;;;4994350;28;20479;-69
2021/11/28 05:08:57;;;;;;;12.65;4.53;;;;;;;;;;4984252;28;20046;-68
2021/11/28 05:11:22;;;;;;;14.55;4.63;;;;;;;;;;4989109;28;20137;-68
2021/11/28 05:13:48;;;;;;;17.02;5.38;;;;;;;;;;4986613;28;20372;-70
2021/11/28 05:16:13;;;;;;;16.75;4.97;;;;;;;;;;4988601;28;20034;-68
2021/11/28 05:18:38;;;;;;;11.25;4.65;;;;;;;;;;4989263;28;20034;-70
2021/11/28 05:21:03;;;;;;;16.63;5.28;;;;;;;;;;4988929;28;20026;-68
2021/11/28 05:23:29;;;;;;;12.10;4.68;;;;;;;;;;4990836;28;20036;-70
2021/11/28 05:25:54;;;;;;;10.77;5.47;;;;;;;;;;4998964;28;20106;-71
2021/11/28 05:28:19;;;;;;;12.20;4.70;;;;;;;;;;4991973;28;20401;-68
2021/11/28 05:30:45;;;;;;;11.80;4.93;;;;;;;;;;4978315;28;20030;-69
2021/11/28 05:33:10;;;;;;;14.40;4.97;;;;;;;;;;4997397;28;20018;-70
2021/11/28 05:35:35;;;;;;;11.90;4.60;;;;;;;;;;4994239;28;20073;-69
2021/11/28 05:38:00;;;;;;;12.23;4.97;;;;;;;;;;4988253;28;20026;-69
2021/11/28 05:40:26;;;;;;;10.07;5.18;;;;;;;;;;4989366;28;20019;-69
2021/11/28 05:42:52;;;;;;;10.50;4.68;;;;;;;;;;4990043;28;20491;-69
2021/11/28 05:45:20;;;;;;;13.57;5.20;;;;;;;;;;4988578;28;20022;-70
2021/11/28 05:47:45;;;;;;;13.63;5.35;;;;;;;;;;4990710;28;20022;-69
2021/11/28 05:50:11;;;;;;;15.05;4.97;;;;;;;;;;4990256;28;20029;-69
2021/11/28 05:52:36;;;;;;;15.55;5.25;;;;;;;;;;4989273;28;20042;-69
2021/11/28 05:55:03;;;;;;;13.18;5.20;;;;;;;;;;4990920;28;20019;-69
2021/11/28 05:57:28;;;;;;;9.25;4.80;;;;;;;;;;4993077;28;20034;-69
2021/11/28 05:59:53;;;;;;;15.70;5.30;;;;;;;;;;4994268;28;20129;-70
2021/11/28 06:02:19;;;;;;;13.57;5.53;;;;;;;;;;4993863;28;20406;-69
2021/11/28 06:04:44;;;;;;;9.32;5.75;;;;;;;;;;4994463;28;20026;-70
2021/11/28 06:07:09;;;;;;;11.98;5.43;;;;;;;;;;4993837;28;20491;-69
2021/11/28 06:09:34;;;;;;;15.90;5.75;;;;;;;;;;4993566;28;20014;-69
2021/11/28 06:12:00;;;;;;;12.05;5.47;;;;;;;;;;4989345;28;20018;-69
2021/11/28 06:14:25;;;;;;;12.60;5.22;;;;;;;;;;4997839;28;20387;-69
2021/11/28 06:16:50;;;;;;;9.55;5.25;;;;;;;;;;4986574;28;20114;-69
2021/11/28 06:19:15;;;;;;;13.60;4.80;;;;;;;;;;4973271;28;20015;-69
2021/11/28 06:21:41;;;;;;;9.05;4.40;;;;;;;;;;4973941;28;20038;-70
2021/11/28 06:24:06;;;;;;;11.15;4.65;;;;;;;;;;4974193;28;20069;-69
2021/11/28 06:26:31;;;;;;;10.65;4.60;;;;;;;;;;4981154;28;20446;-69
2021/11/28 06:28:56;;;;;;;13.77;6.72;;;;;;;;;;4982310;28;20125;-69
2021/11/28 06:31:22;;;;;;;12.27;4.97;;;;;;;;;;4990297;28;20022;-69
2021/11/28 06:33:47;;;;;;;14.82;5.32;;;;;;;;;;5001092;28;20071;-69
2021/11/28 06:36:12;;;;;;;14.70;5.18;;;;;;;;;;4994229;28;20030;-70
2021/11/28 06:38:38;;;;;;;14.95;5.13;;;;;;;;;;4977419;28;20030;-69
2021/11/28 06:41:03;;;;;;;14.93;5.22;;;;;;;;;;4984651;28;20080;-69
2021/11/28 06:43:28;;;;;;;8.45;4.90;;;;;;;;;;5001568;28;20038;-70
2021/11/28 06:45:53;;;;;;;9.80;5.25;;;;;;;;;;4997180;28;20026;-70
2021/11/28 06:48:18;;;;;;;10.10;4.82;;;;;;;;;;4993620;28;20072;-69
2021/11/28 06:50:44;;;;;;;14.60;5.65;;;;;;;;;;4993505;28;20034;-69
2021/11/28 06:53:09;;;;;;;14.38;4.80;;;;;;;;;;4991693;28;20030;-69
2021/11/28 06:55:34;;;;;;;11.60;4.93;;;;;;;;;;4993202;28;20030;-69
2021/11/28 06:57:59;;;;;;;13.80;5.28;;;;;;;;;;4993425;28;20034;-69
2021/11/28 07:00:25;;;;;;;10.00;5.13;;;;;;;;;;4991385;28;20018;-69
2021/11/28 07:02:50;;;;;;;13.18;5.43;;;;;;;;;;4992753;28;20472;-70
2021/11/28 07:05:15;;;;;;;13.63;5.70;;;;;;;;;;4992554;28;20121;-70
2021/11/28 07:07:41;;;;;;;9.20;4.50;;;;;;;;;;4992684;28;20019;-70
2021/11/28 07:10:06;;;;;;;11.20;5.70;;;;;;;;;;4992605;28;20088;-70
2021/11/28 07:12:31;;;;;;;11.10;5.10;;;;;;;;;;4992211;28;20038;-70
2021/11/28 07:14:56;;;;;;;10.35;4.47;;;;;;;;;;4991157;28;20022;-70
2021/11/28 07:17:22;;;;;;;13.00;5.47;;;;;;;;;;4993195;28;20026;-70
2021/11/28 07:19:47;;;;;;;16.08;6.10;;;;;;;;;;4977883;28;20022;-70
2021/11/28 07:22:12;;;;;;;13.32;4.40;;;;;;;;;;4990644;28;20434;-70
2021/11/28 07:24:37;;;;;;;12.95;4.80;;;;;;;;;;4986944;28;20494;-70
2021/11/28 07:27:02;;;;;;;9.38;4.70;;;;;;;;;;4991014;28;20479;-70
2021/11/28 07:29:28;;;;;;;13.68;4.93;;;;;;;;;;4984596;28;20391;-71
2021/11/28 07:31:53;;;;;;;13.02;5.10;;;;;;;;;;4980191;28;20463;-70
2021/11/28 07:34:18;;;;;;;19.70;5.88;;;;;;;;;;4996702;28;20100;-70
2021/11/28 07:36:43;;;;;;;12.02;6.53;;;;;;;;;;5000478;28;20026;-70
2021/11/28 07:39:09;;;;;;;12.07;6.50;;;;;;;;;;4990671;28;20052;-70
2021/11/28 07:41:35;;;;;;;15.65;6.50;;;;;;;;;;4978165;28;20113;-70
2021/11/28 07:44:00;;;;;;;13.90;7.47;;;;;;;;;;4977946;28;20103;-70
2021/11/28 07:46:25;;;;;;;16.92;7.07;;;;;;;;;;4983930;28;20559;-70
2021/11/28 07:48:51;;;;;;;13.63;7.03;;;;;;;;;;4990427;28;20022;-70
2021/11/28 07:51:17;;;;;;;17.42;6.82;;;;;;;;;;4986532;28;20106;-70
2021/11/28 07:53:45;;;;;;;15.93;9.38;;;;;;;;;;4991243;28;20030;-70
2021/11/28 07:56:10;;;;;;;17.23;6.43;;;;;;;;;;4987595;28;20022;-70
2021/11/28 07:58:35;;;;;;;20.60;8.07;;;;;;;;;;4988986;28;20089;-70
2021/11/28 08:01:01;;;;;;;14.63;6.38;;;;;;;;;;4991264;28;20018;-70
2021/11/28 08:03:26;;;;;;;15.55;7.05;;;;;;;;;;4997344;28;20010;-70
2021/11/28 08:05:53;;;;;;;18.35;7.53;;;;;;;;;;4991096;28;20093;-71
2021/11/28 08:08:18;;;;;;;22.48;7.30;;;;;;;;;;4988965;28;20030;-70
2021/11/28 08:10:44;;;;;;;18.50;7.07;;;;;;;;;;4991524;28;20270;-70
2021/11/28 08:13:09;;;;;;;12.73;6.05;;;;;;;;;;4991922;28;20395;-70
2021/11/28 08:15:34;;;;;;;17.85;7.38;;;;;;;;;;4991185;28;20077;-70
2021/11/28 08:17:59;;;;;;;11.75;5.43;;;;;;;;;;4990574;28;20034;-70
2021/11/28 08:20:25;;;;;;;20.10;6.25;;;;;;;;;;4993390;28;20101;-70
2021/11/28 08:22:50;;;;;;;13.45;5.90;;;;;;;;;;4990919;28;20387;-70
2021/11/28 08:25:16;;;;;;;15.77;6.30;;;;;;;;;;4992022;28;20061;-70
2021/11/28 08:27:42;;;;;;;16.35;6.30;;;;;;;;;;4991380;28;20034;-70
2021/11/28 08:30:12;;;;;;;16.42;5.82;;;;;;;;;;4991920;28;20033;-70
2021/11/28 08:32:39;;;;;;;12.90;6.32;;;;;;;;;;5001887;28;20026;-70
2021/11/28 08:35:05;;;;;;;16.38;6.93;;;;;;;;;;4992396;28;20392;-70
2021/11/28 08:37:30;;;;;;;19.45;7.53;;;;;;;;;;4992561;28;20032;-70
2021/11/28 08:39:55;;;;;;;18.77;7.40;;;;;;;;;;5003638;28;20377;-70
2021/11/28 08:42:20;;;;;;;16.52;6.97;;;;;;;;;;4989822;28;20089;-70
2021/11/28 08:44:46;;;;;;;15.40;7.20;;;;;;;;;;4981985;28;20027;-70
2021/11/28 08:47:11;;;;;;;15.20;7.35;;;;;;;;;;4973959;28;20033;-70
2021/11/28 08:49:36;;;;;;;15.07;7.40;;;;;;;;;;4986494;28;20172;-70
2021/11/28 08:52:02;;;;;;;18.13;7.35;;;;;;;;;;4986246;28;20026;-70
2021/11/28 08:54:30;;;;;;;14.45;6.40;;;;;;;;;;4982609;28;20074;-71
2021/11/28 08:56:55;;;;;;;15.05;6.75;;;;;;;;;;5007102;28;20028;-71
2021/11/28 08:59:20;;;;;;;14.10;6.25;;;;;;;;;;4993871;28;20109;-71
2021/11/28 09:01:46;;;;;;;14.80;6.75;;;;;;;;;;4990458;28;20025;-71
2021/11/28 09:04:11;;;;;;;16.95;6.72;;;;;;;;;;4991500;28;20031;-71
2021/11/28 09:06:36;;;;;;;16.30;6.05;;;;;;;;;;4991667;28;20026;-72
2021/11/28 09:09:02;;;;;;;17.38;7.55;;;;;;;;;;4993709;28;20088;-71
2021/11/28 09:11:27;;;;;;;15.27;6.50;;;;;;;;;;4988709;28;20030;-71
2021/11/28 09:13:53;;;;;;;11.10;6.28;;;;;;;;;;4982107;28;20025;-71
2021/11/28 09:16:18;;;;;;;13.95;6.80;;;;;;;;;;4988115;28;20030;-71
2021/11/28 09:18:53;;;;;;;12.85;6.60;;;;;;;;;;4991021;28;20383;-71
2021/11/28 09:21:19;;;;;;;17.65;8.55;;;;;;;;;;4993142;28;20030;-71
2021/11/28 09:26:29;;;;;;;16.70;8.38;;;;;;;;;;4993420;28;20061;-71
2021/11/28 09:28:54;;;;;;;23.02;8.32;;;;;;;;;;5005329;28;20474;-71
2021/11/28 09:31:19;;;;;;;14.48;7.55;;;;;;;;;;4990444;28;20320;-71
2021/11/28 09:33:45;;;;;;;24.02;9.50;;;;;;;;;;4984480;28;20093;-71
2021/11/28 09:36:10;;;;;;;15.88;7.13;;;;;;;;;;4989522;28;20384;-71
2021/11/28 09:38:36;;;;;;;18.27;7.93;;;;;;;;;;4986763;28;20022;-71
2021/11/28 09:41:08;;;;;;;14.85;7.13;;;;;;;;;;4986622;28;20364;-71
2021/11/28 09:43:35;;;;;;;14.63;7.40;;;;;;;;;;4991178;28;20034;-71
2021/11/28 09:46:03;;;;;;;18.45;7.88;;;;;;;;;;4994602;28;20106;-71
2021/11/28 09:48:28;;;;;;;17.60;7.68;;;;;;;;;;4988758;28;20041;-71
2021/11/28 09:50:53;;;;;;;15.27;7.10;;;;;;;;;;5004027;28;20026;-71
2021/11/28 09:53:19;;;;;;;14.90;6.30;;;;;;;;;;4976119;28;20050;-71
2021/11/28 09:55:44;;;;;;;18.02;7.30;;;;;;;;;;4989050;28;20030;-71
2021/11/28 09:58:10;;;;;;;17.02;7.50;;;;;;;;;;4988246;28;20367;-71
2021/11/28 10:00:36;;;;;;;15.13;6.63;;;;;;;;;;4987223;28;20732;-71
2021/11/28 10:03:01;;;;;;;11.15;6.35;;;;;;;;;;4991814;28;20113;-72
2021/11/28 10:05:27;;;;;;;14.40;6.68;;;;;;;;;;5002154;28;20018;-71
2021/11/28 10:07:52;;;;;;;13.23;6.38;;;;;;;;;;4988451;28;20029;-71
2021/11/28 10:10:18;;;;;;;13.20;6.22;;;;;;;;;;4987082;28;20462;-71
2021/11/28 10:12:45;;;;;;;11.25;6.78;;;;;;;;;;4988274;28;20089;-71
2021/11/28 10:15:15;;;;;;;17.55;6.70;;;;;;;;;;4988623;28;20029;-71
2021/11/28 10:17:41;;;;;;;20.73;7.25;;;;;;;;;;4987940;28;20026;-71
2021/11/28 10:20:14;;;;;;;15.32;7.55;;;;;;;;;;4988631;28;20483;-71
2021/11/28 10:22:39;;;;;;;15.80;6.75;;;;;;;;;;4994848;28;20048;-71
2021/11/28 10:25:11;;;;;;;18.75;7.47;;;;;;;;;;4999284;28;20038;-71
2021/11/28 10:27:40;;;;;;;15.52;7.05;;;;;;;;;;4987475;28;20021;-72
2021/11/28 10:30:08;;;;;;;17.45;7.63;;;;;;;;;;4995643;28;20438;-72
2021/11/28 10:32:33;;;;;;;19.70;7.50;;;;;;;;;;4995648;28;20034;-72
2021/11/28 10:34:58;;;;;;;16.13;7.60;;;;;;;;;;4998013;28;20102;-72
2021/11/28 10:37:24;;;;;;;18.35;7.80;;;;;;;;;;4997806;28;20368;-72
2021/11/28 10:39:52;;;;;;;13.68;7.03;;;;;;;;;;4991271;28;20030;-72
2021/11/28 10:42:21;;;;;;;15.20;7.25;;;;;;;;;;4995484;28;20073;-72
2021/11/28 10:45:07;;;;;;;15.95;7.30;;;;;;;;;;4990907;28;20026;-72
2021/11/28 10:47:38;;;;;;;14.85;7.35;;;;;;;;;;4992004;28;20371;-71
2021/11/28 10:50:25;;;;;;;12.95;6.97;;;;;;;;;;4993554;28;20027;-71
2021/11/28 10:53:10;;;;;;;10.93;6.22;;;;;;;;;;4991554;28;20035;-71
2021/11/28 10:55:38;;;;;;;11.82;6.13;;;;;;;;;;4992847;28;20049;-71
2021/11/28 10:58:06;;;;;;;18.77;6.82;;;;;;;;;;4993608;28;20026;-71
2021/11/28 11:00:31;;;;;;;15.07;6.78;;;;;;;;;;4992925;28;20409;-71
2021/11/28 11:02:56;;;;;;;12.52;7.35;;;;;;;;;;4993041;28;20022;-71
2021/11/28 11:05:23;;;;;;;20.77;7.37;;;;;;;;;;4992956;28;20018;-71
2021/11/28 11:07:50;;;;;;;19.00;7.63;;;;;;;;;;4992378;28;20269;-73
2021/11/28 11:10:17;;;;;;;13.52;7.10;;;;;;;;;;4992634;28;20019;-70
2021/11/28 11:12:42;;;;;;;16.23;8.00;;;;;;;;;;4992998;28;20023;-70
2021/11/28 11:15:07;;;;;;;17.55;7.13;;;;;;;;;;4992863;28;20566;-70
2021/11/28 11:17:34;;;;;;;19.42;8.20;;;;;;;;;;4990793;28;20081;-70
2021/11/28 11:19:59;;;;;;;15.07;7.35;;;;;;;;;;4992451;28;20030;-73
2021/11/28 11:22:27;;;;;;;17.25;8.13;;;;;;;;;;4992901;28;20019;-70
2021/11/28 11:24:58;;;;;;;13.73;7.68;;;;;;;;;;4992330;28;20081;-70
2021/11/28 11:27:23;;;;;;;12.65;6.90;;;;;;;;;;4992676;28;20479;-70
2021/11/28 11:29:50;;;;;;;13.25;6.95;;;;;;;;;;4992595;28;20033;-70
2021/11/28 11:32:20;;;;;;;14.93;7.75;;;;;;;;;;4992938;28;20034;-70
2021/11/28 11:34:52;;;;;;;31.13;7.95;;;;;;;;;;4992757;28;20032;-71
2021/11/28 11:37:18;;;;;;;19.20;7.53;;;;;;;;;;4992758;28;20118;-70
2021/11/28 11:39:45;;;;;;;14.82;7.38;;;;;;;;;;4991783;28;20113;-72
2021/11/28 11:42:13;;;;;;;13.38;7.60;;;;;;;;;;4990937;28;20026;-71
2021/11/28 11:44:38;;;;;;;16.77;7.70;;;;;;;;;;4982678;28;20352;-71
2021/11/28 11:47:03;;;;;;;21.50;9.48;;;;;;;;;;4992440;28;20022;-73
2021/11/28 11:49:29;;;;;;;20.55;8.98;;;;;;;;;;4985908;28;20370;-71
2021/11/28 11:51:55;;;;;;;19.80;9.90;;;;;;;;;;4989853;28;20031;-70
2021/11/28 11:54:22;;;;;;;16.20;8.07;;;;;;;;;;4989415;28;20037;-70
2021/11/28 11:56:49;;;;;;;20.35;9.18;;;;;;;;;;4991726;28;20113;-70
2021/11/28 11:59:22;;;;;;;22.08;8.98;;;;;;;;;;4992192;28;20590;-72
2021/11/28 12:01:58;;;;;;;26.75;11.85;;;;;;;;;;4987284;28;20485;-70
2021/11/28 12:04:34;;;;;;;22.17;10.57;;;;;;;;;;4990478;28;20025;-70
2021/11/28 12:06:59;;;;;;;28.05;11.27;;;;;;;;;;4992042;28;20037;-71
2021/11/28 12:09:29;;;;;;;30.20;11.90;;;;;;;;;;4992289;28;20030;-70
2021/11/28 12:11:58;;;;;;;31.52;12.75;;;;;;;;;;4991559;28;20027;-70
2021/11/28 12:14:24;;;;;;;30.27;12.52;;;;;;;;;;4989970;28;20026;-70
2021/11/28 12:16:49;;;;;;;27.73;12.52;;;;;;;;;;4990644;28;20032;-70
2021/11/28 12:19:33;;;;;;;32.00;12.38;;;;;;;;;;4989867;28;20037;-70
2021/11/28 12:21:58;;;;;;;27.08;12.43;;;;;;;;;;4988971;28;20023;-70
2021/11/28 12:24:30;;;;;;;34.40;12.67;;;;;;;;;;4990063;28;20085;-70
2021/11/28 12:26:59;;;;;;;30.92;12.43;;;;;;;;;;4990537;28;20268;-70
2021/11/28 12:29:28;;;;;;;27.77;12.50;;;;;;;;;;4991562;28;20014;-70
2021/11/28 12:32:11;;;;;;;32.57;13.10;;;;;;;;;;4991014;28;20030;-70
2021/11/28 12:34:47;;;;;;;31.15;13.23;;;;;;;;;;4991226;28;20526;-70
2021/11/28 12:37:20;;;;;;;39.42;14.68;;;;;;;;;;4990328;28;20022;-70
2021/11/28 12:39:45;;;;;;;38.38;14.98;;;;;;;;;;4986458;28;20028;-71
2021/11/28 12:42:13;;;;;;;33.50;14.05;;;;;;;;;;4987904;28;20022;-70
2021/11/28 12:44:50;;;;;;;38.55;15.60;;;;;;;;;;4988430;28;20022;-70
2021/11/28 12:47:16;;;;;;;40.45;16.13;;;;;;;;;;4983440;28;20557;-73
2021/11/28 12:49:45;;;;;;;37.13;15.43;;;;;;;;;;4988260;28;20065;-71
2021/11/28 12:52:22;;;;;;;41.58;15.68;;;;;;;;;;4985105;28;20284;-71
2021/11/28 12:55:02;;;;;;;38.83;14.77;;;;;;;;;;4988496;28;20026;-70
2021/11/28 12:57:27;;;;;;;46.17;16.73;;;;;;;;;;4986981;28;20080;-70
2021/11/28 13:00:12;;;;;;;42.17;15.77;;;;;;;;;;4985392;28;20031;-70
2021/11/28 13:02:44;;;;;;;37.08;13.68;;;;;;;;;;4990071;28;20297;-70
2021/11/28 13:05:31;;;;;;;38.17;17.08;;;;;;;;;;4984605;28;20014;-70
2021/11/28 13:08:05;;;;;;;42.63;16.35;;;;;;;;;;4986374;28;20014;-72
2021/11/28 13:10:33;;;;;;;36.50;13.52;;;;;;;;;;4989550;28;20390;-72
2021/11/28 13:13:00;;;;;;;44.90;14.07;;;;;;;;;;4988998;28;20025;-71
2021/11/28 13:15:26;;;;;;;37.45;14.02;;;;;;;;;;4989514;28;20101;-71
2021/11/28 13:17:53;;;;;;;34.03;15.02;;;;;;;;;;4988889;28;20029;-71
2021/11/28 13:20:18;;;;;;;40.95;15.05;;;;;;;;;;4985889;28;20456;-71
2021/11/28 13:22:44;;;;;;;43.53;17.98;;;;;;;;;;4989765;28;20021;-71
2021/11/28 13:25:29;;;;;;;39.67;14.82;;;;;;;;;;4985404;28;20026;-71
2021/11/28 13:28:01;;;;;;;34.50;15.27;;;;;;;;;;4988240;28;20403;-72
2021/11/28 13:30:34;;;;;;;33.17;16.35;;;;;;;;;;4989044;28;20045;-71
2021/11/28 13:33:06;;;;;;;38.20;18.38;;;;;;;;;;4988692;28;20153;-71
2021/11/28 13:35:32;;;;;;;36.22;17.02;;;;;;;;;;4989118;28;20026;-71
2021/11/28 13:38:16;;;;;;;35.13;18.63;;;;;;;;;;4988440;28;20025;-71
2021/11/28 13:41:00;;;;;;;37.25;16.98;;;;;;;;;;4988258;28;20380;-71
2021/11/28 13:43:39;;;;;;;30.15;14.48;;;;;;;;;;4987920;28;20023;-71
2021/11/28 13:46:04;;;;;;;35.92;17.48;;;;;;;;;;4984510;28;20019;-71
2021/11/28 13:48:38;;;;;;;29.27;14.48;;;;;;;;;;4990613;28;20030;-71
2021/11/28 13:51:04;;;;;;;37.97;16.85;;;;;;;;;;4990529;28;20260;-71
2021/11/28 13:53:29;;;;;;;40.97;17.97;;;;;;;;;;4989842;28;20098;-71
2021/11/28 13:55:54;;;;;;;34.97;17.95;;;;;;;;;;4989036;28;20595;-71
2021/11/28 13:58:23;;;;;;;37.17;16.98;;;;;;;;;;4990784;28;20085;-71
2021/11/28 14:00:48;;;;;;;37.35;16.38;;;;;;;;;;4990163;28;20022;-71
2021/11/28 14:03:13;;;;;;;38.80;19.40;;;;;;;;;;4990881;28;20395;-71
2021/11/28 14:05:39;;;;;;;32.77;15.43;;;;;;;;;;4989843;28;20070;-71
2021/11/28 14:08:04;;;;;;;33.17;15.70;;;;;;;;;;4990619;28;20607;-71
2021/11/28 14:10:30;;;;;;;33.65;15.90;;;;;;;;;;4987135;28;20380;-71
2021/11/28 14:12:56;;;;;;;34.72;15.02;;;;;;;;;;4988615;28;20010;-71
2021/11/28 14:15:23;;;;;;;39.92;15.00;;;;;;;;;;4989110;28;20026;-71
2021/11/28 14:17:55;;;;;;;29.90;15.07;;;;;;;;;;4993581;28;20081;-71
2021/11/28 14:20:25;;;;;;;29.15;14.70;;;;;;;;;;4991888;28;20046;-71
2021/11/28 14:22:52;;;;;;;29.00;13.50;;;;;;;;;;4992475;28;20121;-72
2021/11/28 14:25:20;;;;;;;26.63;13.20;;;;;;;;;;4991745;28;20203;-71
2021/11/28 14:28:07;;;;;;;27.73;13.98;;;;;;;;;;4993693;28;20368;-71
2021/11/28 14:30:34;;;;;;;32.60;14.80;;;;;;;;;;4993569;28;20087;-70
2021/11/28 14:33:04;;;;;;;34.75;15.05;;;;;;;;;;5004494;28;20014;-71
2021/11/28 14:35:30;;;;;;;31.88;15.05;;;;;;;;;;4991545;28;20352;-71